Flugplatz Büllingen (EBBN)

Hier findest Du alle Informationen zum Flugplatz Büllingen (EBBN).

Informationen für Piloten zum Flugplatz Büllingen

Hier findest Du alle relevanten Informationen, die Du als Pilot benötigst, um Büllingen anzufliegen.

Flugplatz: Büllingen ICAO-Code: EBBN
Frequenz Turm: 123.400 Mhz GAFOR Gebiet: 37
Frequenz Ground: 123.400 Mhz Mogas: nein
Platzrunde: N 3000 ft Landegebühr: 0 €
Platzhöhe: Sunrise: 07:17 Uhr UTC
Pisten: 12/30 - 300 m x 30 m, GRAS Sunset: 15:34 Uhr UTC

Flugwetter am Flugplatz Büllingen

Die METAR Information stammen aus EDDK (79.10 km entfernt).

METAR Code:
2021/11/29 15:50
EDDK 291550Z 28007KT 9999 -RA FEW010 BKN041 04/02 Q1010 BECMG BKN020

Flugschulen am Flugplatz Büllingen

Am Flugplatz Büllingen gibt es leider keine Flugschule.

Benachbarte Flugplätze und Flugschulen

Es gibt 6 weitere Flugplätze in einem Umkreis von 50 km um den Flugplatz Büllingen.

Jetzt anmelden

Passwort vergessen

Umfrage Archiv

Welche Navigations-App nutzt Ihr im Cockpit

SkyDemon
49.5 %
VFRnav
21.3 %
Ich nutze eine andere App
19.7 %
Ich nutze gar keine App
4.8 %
EasyVFR
4.3 %
ForeFlight
0.5 %
Stimmen: 188 | Diskussion (45)
Anzeige: Roland Aircraft
Statistik Alle Mitglieder

Aktuell sind 44 Besucher online, davon 3 Mitglieder und 41 Gäste.


Mitglieder online:
JZabel  Tarutino  mikemike 

Anzeige: Pocket FMS